sensor_id;sensor_type;location;lat;lon;timestamp;temperature;humidity
29577;DHT22;16509;53.862;10.672;2022-08-19T00:00:19;19.80;99.90
29577;DHT22;16509;53.862;10.672;2022-08-19T00:02:46;19.80;99.90
29577;DHT22;16509;53.862;10.672;2022-08-19T00:05:13;19.70;99.90
29577;DHT22;16509;53.862;10.672;2022-08-19T00:07:39;19.80;99.90
29577;DHT22;16509;53.862;10.672;2022-08-19T00:10:07;19.70;99.90
29577;DHT22;16509;53.862;10.672;2022-08-19T00:12:33;19.70;99.90
29577;DHT22;16509;53.862;10.672;2022-08-19T00:14:59;19.70;99.90
29577;DHT22;16509;53.862;10.672;2022-08-19T00:17:25;19.60;99.90
29577;DHT22;16509;53.862;10.672;2022-08-19T00:19:51;19.60;99.90
29577;DHT22;16509;53.862;10.672;2022-08-19T00:22:16;19.60;99.90
29577;DHT22;16509;53.862;10.672;2022-08-19T00:24:44;20.00;99.90
29577;DHT22;16509;53.862;10.672;2022-08-19T00:27:11;19.60;99.90
29577;DHT22;16509;53.862;10.672;2022-08-19T00:29:37;19.60;99.90
29577;DHT22;16509;53.862;10.672;2022-08-19T00:32:04;19.50;99.90
29577;DHT22;16509;53.862;10.672;2022-08-19T00:34:30;19.50;99.90
29577;DHT22;16509;53.862;10.672;2022-08-19T00:36:56;19.50;99.90
29577;DHT22;16509;53.862;10.672;2022-08-19T00:39:22;19.50;99.90
29577;DHT22;16509;53.862;10.672;2022-08-19T00:41:49;19.40;99.90
29577;DHT22;16509;53.862;10.672;2022-08-19T00:44:16;19.50;99.90
29577;DHT22;16509;53.862;10.672;2022-08-19T00:46:45;19.50;99.90
29577;DHT22;16509;53.862;10.672;2022-08-19T00:49:16;20.60;99.90
29577;DHT22;16509;53.862;10.672;2022-08-19T00:51:45;19.50;99.90
29577;DHT22;16509;53.862;10.672;2022-08-19T00:54:11;19.50;99.90
29577;DHT22;16509;53.862;10.672;2022-08-19T00:56:37;19.70;99.90
29577;DHT22;16509;53.862;10.672;2022-08-19T00:59:04;19.50;99.90
29577;DHT22;16509;53.862;10.672;2022-08-19T01:01:38;19.60;99.90
29577;DHT22;16509;53.862;10.672;2022-08-19T01:04:05;19.70;99.90
29577;DHT22;16509;53.862;10.672;2022-08-19T01:06:31;19.40;99.90
29577;DHT22;16509;53.862;10.672;2022-08-19T01:08:58;19.50;99.90
29577;DHT22;16509;53.862;10.672;2022-08-19T01:11:26;20.50;99.90
29577;DHT22;16509;53.862;10.672;2022-08-19T01:13:53;19.60;99.90
29577;DHT22;16509;53.862;10.672;2022-08-19T01:16:21;19.50;99.90
29577;DHT22;16509;53.862;10.672;2022-08-19T01:18:48;19.60;99.90
29577;DHT22;16509;53.862;10.672;2022-08-19T01:21:42;19.60;99.90
29577;DHT22;16509;53.862;10.672;2022-08-19T01:24:10;19.60;99.90
29577;DHT22;16509;53.862;10.672;2022-08-19T01:26:41;19.50;99.90
29577;DHT22;16509;53.862;10.672;2022-08-19T01:29:09;19.60;99.90
29577;DHT22;16509;53.862;10.672;2022-08-19T01:31:35;19.60;99.90
29577;DHT22;16509;53.862;10.672;2022-08-19T01:34:03;19.50;99.90
29577;DHT22;16509;53.862;10.672;2022-08-19T01:36:34;19.60;99.90
29577;DHT22;16509;53.862;10.672;2022-08-19T01:39:03;19.60;99.90
29577;DHT22;16509;53.862;10.672;2022-08-19T01:41:29;19.60;99.90
29577;DHT22;16509;53.862;10.672;2022-08-19T01:43:54;19.60;99.90
29577;DHT22;16509;53.862;10.672;2022-08-19T01:46:21;19.60;99.90
29577;DHT22;16509;53.862;10.672;2022-08-19T01:48:47;19.50;99.90
29577;DHT22;16509;53.862;10.672;2022-08-19T01:51:13;19.50;99.90
29577;DHT22;16509;53.862;10.672;2022-08-19T01:53:39;19.50;99.90
29577;DHT22;16509;53.862;10.672;2022-08-19T01:56:06;19.50;99.90
29577;DHT22;16509;53.862;10.672;2022-08-19T01:58:34;19.50;99.90
29577;DHT22;16509;53.862;10.672;2022-08-19T02:01:03;19.50;99.90
29577;DHT22;16509;53.862;10.672;2022-08-19T02:03:29;20.00;99.90
29577;DHT22;16509;53.862;10.672;2022-08-19T02:05:56;19.60;99.90
29577;DHT22;16509;53.862;10.672;2022-08-19T02:08:23;19.60;99.90
29577;DHT22;16509;53.862;10.672;2022-08-19T02:10:48;19.40;99.90
29577;DHT22;16509;53.862;10.672;2022-08-19T02:13:15;19.50;99.90
29577;DHT22;16509;53.862;10.672;2022-08-19T02:15:41;19.40;99.90
29577;DHT22;16509;53.862;10.672;2022-08-19T02:18:07;19.30;99.90
29577;DHT22;16509;53.862;10.672;2022-08-19T02:20:34;19.40;99.90
29577;DHT22;16509;53.862;10.672;2022-08-19T02:22:59;21.40;99.90
29577;DHT22;16509;53.862;10.672;2022-08-19T02:25:26;19.50;99.90
29577;DHT22;16509;53.862;10.672;2022-08-19T02:27:52;22.80;99.90
29577;DHT22;16509;53.862;10.672;2022-08-19T02:30:18;19.50;99.90
29577;DHT22;16509;53.862;10.672;2022-08-19T02:32:44;19.50;99.90
29577;DHT22;16509;53.862;10.672;2022-08-19T02:35:10;19.50;99.90
29577;DHT22;16509;53.862;10.672;2022-08-19T02:37:36;19.50;99.90
29577;DHT22;16509;53.862;10.672;2022-08-19T02:40:20;19.80;99.90
29577;DHT22;16509;53.862;10.672;2022-08-19T02:42:46;19.50;99.90
29577;DHT22;16509;53.862;10.672;2022-08-19T02:45:13;19.50;99.90
29577;DHT22;16509;53.862;10.672;2022-08-19T02:47:39;19.40;99.90
29577;DHT22;16509;53.862;10.672;2022-08-19T02:50:05;19.40;99.90
29577;DHT22;16509;53.862;10.672;2022-08-19T02:52:32;19.40;99.90
29577;DHT22;16509;53.862;10.672;2022-08-19T02:54:59;19.40;99.90
29577;DHT22;16509;53.862;10.672;2022-08-19T02:57:25;19.50;99.90
29577;DHT22;16509;53.862;10.672;2022-08-19T02:59:51;19.60;99.90
29577;DHT22;16509;53.862;10.672;2022-08-19T03:02:17;19.50;99.90
29577;DHT22;16509;53.862;10.672;2022-08-19T03:04:43;19.60;99.90
29577;DHT22;16509;53.862;10.672;2022-08-19T03:07:09;19.50;99.90
29577;DHT22;16509;53.862;10.672;2022-08-19T03:09:39;19.60;99.90
29577;DHT22;16509;53.862;10.672;2022-08-19T03:12:04;19.70;99.90
29577;DHT22;16509;53.862;10.672;2022-08-19T03:14:31;19.60;99.90
29577;DHT22;16509;53.862;10.672;2022-08-19T03:16:57;19.60;99.90
29577;DHT22;16509;53.862;10.672;2022-08-19T03:19:23;19.60;99.90
29577;DHT22;16509;53.862;10.672;2022-08-19T03:21:50;19.60;99.90
29577;DHT22;16509;53.862;10.672;2022-08-19T03:24:16;19.30;99.90
29577;DHT22;16509;53.862;10.672;2022-08-19T03:26:46;19.60;99.90
29577;DHT22;16509;53.862;10.672;2022-08-19T03:29:12;19.60;99.90
29577;DHT22;16509;53.862;10.672;2022-08-19T03:31:39;19.60;99.90
29577;DHT22;16509;53.862;10.672;2022-08-19T03:34:06;19.50;99.90
29577;DHT22;16509;53.862;10.672;2022-08-19T03:36:32;19.60;99.90
29577;DHT22;16509;53.862;10.672;2022-08-19T03:39:00;19.70;99.90
29577;DHT22;16509;53.862;10.672;2022-08-19T03:41:28;19.70;99.90
29577;DHT22;16509;53.862;10.672;2022-08-19T03:43:56;22.40;99.90
29577;DHT22;16509;53.862;10.672;2022-08-19T03:46:25;19.60;99.90
29577;DHT22;16509;53.862;10.672;2022-08-19T03:48:52;19.60;99.90
29577;DHT22;16509;53.862;10.672;2022-08-19T03:51:30;19.60;99.90
29577;DHT22;16509;53.862;10.672;2022-08-19T03:53:58;19.50;99.90
29577;DHT22;16509;53.862;10.672;2022-08-19T03:56:25;19.50;99.90
29577;DHT22;16509;53.862;10.672;2022-08-19T03:58:53;19.50;99.90
29577;DHT22;16509;53.862;10.672;2022-08-19T04:01:20;19.60;99.90
29577;DHT22;16509;53.862;10.672;2022-08-19T04:03:47;19.60;99.90
29577;DHT22;16509;53.862;10.672;2022-08-19T04:06:34;19.60;99.90
29577;DHT22;16509;53.862;10.672;2022-08-19T04:09:03;19.60;99.90
29577;DHT22;16509;53.862;10.672;2022-08-19T04:11:39;19.50;99.90
29577;DHT22;16509;53.862;10.672;2022-08-19T04:14:10;19.50;99.90
29577;DHT22;16509;53.862;10.672;2022-08-19T04:16:36;19.50;99.90
29577;DHT22;16509;53.862;10.672;2022-08-19T04:19:04;19.50;99.90
29577;DHT22;16509;53.862;10.672;2022-08-19T04:21:30;19.50;99.90
29577;DHT22;16509;53.862;10.672;2022-08-19T04:23:56;20.40;99.90
29577;DHT22;16509;53.862;10.672;2022-08-19T04:26:27;19.60;99.90
29577;DHT22;16509;53.862;10.672;2022-08-19T04:28:53;19.50;99.90
29577;DHT22;16509;53.862;10.672;2022-08-19T04:31:22;19.50;99.90
29577;DHT22;16509;53.862;10.672;2022-08-19T04:34:00;19.40;99.90
29577;DHT22;16509;53.862;10.672;2022-08-19T04:36:31;19.50;99.90
29577;DHT22;16509;53.862;10.672;2022-08-19T04:38:59;19.40;99.90
29577;DHT22;16509;53.862;10.672;2022-08-19T04:41:26;19.40;99.90
29577;DHT22;16509;53.862;10.672;2022-08-19T04:44:11;19.50;99.90
29577;DHT22;16509;53.862;10.672;2022-08-19T04:46:37;19.50;99.90
29577;DHT22;16509;53.862;10.672;2022-08-19T04:49:05;19.40;99.90
29577;DHT22;16509;53.862;10.672;2022-08-19T04:51:32;19.40;99.90
29577;DHT22;16509;53.862;10.672;2022-08-19T04:53:59;19.40;99.90
29577;DHT22;16509;53.862;10.672;2022-08-19T04:56:26;19.40;99.90
29577;DHT22;16509;53.862;10.672;2022-08-19T04:58:53;20.90;99.90
29577;DHT22;16509;53.862;10.672;2022-08-19T05:01:23;19.40;99.90
29577;DHT22;16509;53.862;10.672;2022-08-19T05:03:49;19.50;99.90
29577;DHT22;16509;53.862;10.672;2022-08-19T05:06:17;19.50;99.90
29577;DHT22;16509;53.862;10.672;2022-08-19T05:08:43;19.50;99.90
29577;DHT22;16509;53.862;10.672;2022-08-19T05:11:13;19.80;99.90
29577;DHT22;16509;53.862;10.672;2022-08-19T05:13:39;19.50;99.90
29577;DHT22;16509;53.862;10.672;2022-08-19T05:16:05;19.50;99.90
29577;DHT22;16509;53.862;10.672;2022-08-19T05:18:31;19.50;99.90
29577;DHT22;16509;53.862;10.672;2022-08-19T05:21:18;19.40;99.90
29577;DHT22;16509;53.862;10.672;2022-08-19T05:24:03;19.40;99.90
29577;DHT22;16509;53.862;10.672;2022-08-19T05:26:33;19.40;99.90
29577;DHT22;16509;53.862;10.672;2022-08-19T05:28:59;19.40;99.90
29577;DHT22;16509;53.862;10.672;2022-08-19T05:31:25;19.30;99.90
29577;DHT22;16509;53.862;10.672;2022-08-19T05:33:50;19.30;99.90
29577;DHT22;16509;53.862;10.672;2022-08-19T05:36:16;19.30;99.90
29577;DHT22;16509;53.862;10.672;2022-08-19T05:38:41;19.40;99.90
29577;DHT22;16509;53.862;10.672;2022-08-19T05:41:08;19.30;99.90
29577;DHT22;16509;53.862;10.672;2022-08-19T05:43:34;19.30;99.90
29577;DHT22;16509;53.862;10.672;2022-08-19T05:46:00;19.30;99.90
29577;DHT22;16509;53.862;10.672;2022-08-19T05:48:25;19.30;99.90
29577;DHT22;16509;53.862;10.672;2022-08-19T05:50:51;19.30;99.90
29577;DHT22;16509;53.862;10.672;2022-08-19T05:53:17;19.30;99.90
29577;DHT22;16509;53.862;10.672;2022-08-19T05:55:43;20.20;99.90
29577;DHT22;16509;53.862;10.672;2022-08-19T05:58:09;19.20;99.90
29577;DHT22;16509;53.862;10.672;2022-08-19T06:00:35;19.30;99.90
29577;DHT22;16509;53.862;10.672;2022-08-19T06:03:01;19.30;99.90
29577;DHT22;16509;53.862;10.672;2022-08-19T06:05:31;19.30;99.90
29577;DHT22;16509;53.862;10.672;2022-08-19T06:07:57;19.30;99.90
29577;DHT22;16509;53.862;10.672;2022-08-19T06:10:24;19.30;99.90
29577;DHT22;16509;53.862;10.672;2022-08-19T06:12:51;19.30;99.90
29577;DHT22;16509;53.862;10.672;2022-08-19T06:15:17;19.30;99.90
29577;DHT22;16509;53.862;10.672;2022-08-19T06:17:43;19.30;99.90
29577;DHT22;16509;53.862;10.672;2022-08-19T06:20:14;19.30;99.90
29577;DHT22;16509;53.862;10.672;2022-08-19T06:22:46;19.30;99.90
29577;DHT22;16509;53.862;10.672;2022-08-19T06:25:14;19.30;99.90
29577;DHT22;16509;53.862;10.672;2022-08-19T06:27:40;19.30;99.90
29577;DHT22;16509;53.862;10.672;2022-08-19T06:30:06;19.30;99.90
29577;DHT22;16509;53.862;10.672;2022-08-19T06:32:32;19.30;99.90
29577;DHT22;16509;53.862;10.672;2022-08-19T06:34:58;18.00;99.90
29577;DHT22;16509;53.862;10.672;2022-08-19T06:37:23;19.30;99.90
29577;DHT22;16509;53.862;10.672;2022-08-19T06:39:50;19.30;99.90
29577;DHT22;16509;53.862;10.672;2022-08-19T06:42:16;19.40;99.90
29577;DHT22;16509;53.862;10.672;2022-08-19T06:44:45;19.30;99.90
29577;DHT22;16509;53.862;10.672;2022-08-19T06:47:13;19.40;99.90
29577;DHT22;16509;53.862;10.672;2022-08-19T06:49:40;19.40;99.90
29577;DHT22;16509;53.862;10.672;2022-08-19T06:52:07;19.40;99.90
29577;DHT22;16509;53.862;10.672;2022-08-19T06:54:33;19.40;99.90
29577;DHT22;16509;53.862;10.672;2022-08-19T06:57:00;19.30;99.90
29577;DHT22;16509;53.862;10.672;2022-08-19T06:59:28;19.30;99.90
29577;DHT22;16509;53.862;10.672;2022-08-19T07:01:55;19.30;99.90
29577;DHT22;16509;53.862;10.672;2022-08-19T07:04:28;19.30;99.90
29577;DHT22;16509;53.862;10.672;2022-08-19T07:06:59;19.30;99.90
29577;DHT22;16509;53.862;10.672;2022-08-19T07:09:25;19.40;99.90
29577;DHT22;16509;53.862;10.672;2022-08-19T07:11:52;19.40;99.90
29577;DHT22;16509;53.862;10.672;2022-08-19T07:14:22;19.40;99.90
29577;DHT22;16509;53.862;10.672;2022-08-19T07:16:49;19.40;99.90
29577;DHT22;16509;53.862;10.672;2022-08-19T07:19:16;19.30;99.90
29577;DHT22;16509;53.862;10.672;2022-08-19T07:21:42;19.40;99.90
29577;DHT22;16509;53.862;10.672;2022-08-19T07:24:08;19.40;99.90
29577;DHT22;16509;53.862;10.672;2022-08-19T07:26:39;19.40;99.90
29577;DHT22;16509;53.862;10.672;2022-08-19T07:29:05;19.60;99.90
29577;DHT22;16509;53.862;10.672;2022-08-19T07:31:31;19.40;99.90
29577;DHT22;16509;53.862;10.672;2022-08-19T07:34:01;19.20;99.90
29577;DHT22;16509;53.862;10.672;2022-08-19T07:36:28;19.40;99.90
29577;DHT22;16509;53.862;10.672;2022-08-19T07:38:59;20.00;99.90
29577;DHT22;16509;53.862;10.672;2022-08-19T07:41:27;19.40;99.90
29577;DHT22;16509;53.862;10.672;2022-08-19T07:43:54;20.00;99.90
29577;DHT22;16509;53.862;10.672;2022-08-19T07:46:20;19.40;99.90
29577;DHT22;16509;53.862;10.672;2022-08-19T07:48:47;19.40;99.90
29577;DHT22;16509;53.862;10.672;2022-08-19T07:51:17;19.40;99.90
29577;DHT22;16509;53.862;10.672;2022-08-19T07:53:43;19.70;99.90
29577;DHT22;16509;53.862;10.672;2022-08-19T07:56:14;19.40;99.90
29577;DHT22;16509;53.862;10.672;2022-08-19T07:58:42;19.40;99.90
29577;DHT22;16509;53.862;10.672;2022-08-19T08:01:11;19.40;99.90
29577;DHT22;16509;53.862;10.672;2022-08-19T08:03:37;19.40;99.90
29577;DHT22;16509;53.862;10.672;2022-08-19T08:06:22;19.50;99.90
29577;DHT22;16509;53.862;10.672;2022-08-19T08:09:07;19.40;99.90
29577;DHT22;16509;53.862;10.672;2022-08-19T08:11:37;19.50;99.90
29577;DHT22;16509;53.862;10.672;2022-08-19T08:14:03;19.50;99.90
29577;DHT22;16509;53.862;10.672;2022-08-19T08:16:33;19.50;99.90
29577;DHT22;16509;53.862;10.672;2022-08-19T08:18:59;19.60;99.90
29577;DHT22;16509;53.862;10.672;2022-08-19T08:21:24;19.60;99.90
29577;DHT22;16509;53.862;10.672;2022-08-19T08:23:50;19.60;99.90
29577;DHT22;16509;53.862;10.672;2022-08-19T08:26:17;19.50;99.90
29577;DHT22;16509;53.862;10.672;2022-08-19T08:28:42;19.60;99.90
29577;DHT22;16509;53.862;10.672;2022-08-19T08:31:08;19.60;99.90
29577;DHT22;16509;53.862;10.672;2022-08-19T08:33:34;19.70;99.90
29577;DHT22;16509;53.862;10.672;2022-08-19T08:36:06;19.50;99.90
29577;DHT22;16509;53.862;10.672;2022-08-19T08:38:32;19.60;99.90
29577;DHT22;16509;53.862;10.672;2022-08-19T08:41:09;19.60;99.90
29577;DHT22;16509;53.862;10.672;2022-08-19T08:43:40;19.50;99.90
29577;DHT22;16509;53.862;10.672;2022-08-19T08:46:13;19.60;99.90
29577;DHT22;16509;53.862;10.672;2022-08-19T08:49:07;19.70;99.90
29577;DHT22;16509;53.862;10.672;2022-08-19T08:51:46;19.60;99.90
29577;DHT22;16509;53.862;10.672;2022-08-19T08:54:16;19.70;99.90
29577;DHT22;16509;53.862;10.672;2022-08-19T08:56:44;19.60;99.90
29577;DHT22;16509;53.862;10.672;2022-08-19T08:59:25;19.60;99.90
29577;DHT22;16509;53.862;10.672;2022-08-19T09:01:51;19.50;99.90
29577;DHT22;16509;53.862;10.672;2022-08-19T09:04:18;19.50;99.90
29577;DHT22;16509;53.862;10.672;2022-08-19T09:09:47;19.50;99.90
29577;DHT22;16509;53.862;10.672;2022-08-19T09:15:00;19.50;99.90
29577;DHT22;16509;53.862;10.672;2022-08-19T09:17:28;19.60;99.90
29577;DHT22;16509;53.862;10.672;2022-08-19T09:20:20;19.60;99.90
29577;DHT22;16509;53.862;10.672;2022-08-19T09:22:47;19.60;99.90
29577;DHT22;16509;53.862;10.672;2022-08-19T09:25:16;19.60;99.90
29577;DHT22;16509;53.862;10.672;2022-08-19T09:27:43;19.60;99.90
29577;DHT22;16509;53.862;10.672;2022-08-19T09:30:13;19.70;99.90
29577;DHT22;16509;53.862;10.672;2022-08-19T09:32:38;19.70;99.90
29577;DHT22;16509;53.862;10.672;2022-08-19T09:35:07;19.70;99.90
29577;DHT22;16509;53.862;10.672;2022-08-19T09:37:33;19.60;99.90
29577;DHT22;16509;53.862;10.672;2022-08-19T09:39:58;19.60;99.90
29577;DHT22;16509;53.862;10.672;2022-08-19T09:42:24;19.60;99.90
29577;DHT22;16509;53.862;10.672;2022-08-19T09:44:49;19.60;99.90
29577;DHT22;16509;53.862;10.672;2022-08-19T09:47:15;19.60;99.90
29577;DHT22;16509;53.862;10.672;2022-08-19T09:49:42;20.00;99.90
29577;DHT22;16509;53.862;10.672;2022-08-19T09:52:11;19.60;99.90
29577;DHT22;16509;53.862;10.672;2022-08-19T09:54:38;19.60;99.90
29577;DHT22;16509;53.862;10.672;2022-08-19T09:57:04;19.60;99.90
29577;DHT22;16509;53.862;10.672;2022-08-19T09:59:30;19.70;99.90
29577;DHT22;16509;53.862;10.672;2022-08-19T10:01:56;19.70;99.90
29577;DHT22;16509;53.862;10.672;2022-08-19T10:04:22;19.70;99.90
29577;DHT22;16509;53.862;10.672;2022-08-19T10:06:49;19.80;99.90
29577;DHT22;16509;53.862;10.672;2022-08-19T10:09:17;19.80;99.90
29577;DHT22;16509;53.862;10.672;2022-08-19T10:11:44;19.80;99.90
29577;DHT22;16509;53.862;10.672;2022-08-19T10:14:15;19.90;99.90
29577;DHT22;16509;53.862;10.672;2022-08-19T10:16:42;19.90;99.90
29577;DHT22;16509;53.862;10.672;2022-08-19T10:19:08;19.90;99.90
29577;DHT22;16509;53.862;10.672;2022-08-19T10:21:35;19.90;99.90
29577;DHT22;16509;53.862;10.672;2022-08-19T10:24:04;19.90;99.90
29577;DHT22;16509;53.862;10.672;2022-08-19T10:26:33;19.90;99.90
29577;DHT22;16509;53.862;10.672;2022-08-19T10:28:59;19.90;99.90
29577;DHT22;16509;53.862;10.672;2022-08-19T10:31:28;19.90;99.90
29577;DHT22;16509;53.862;10.672;2022-08-19T10:33:55;19.80;99.90
29577;DHT22;16509;53.862;10.672;2022-08-19T10:36:26;19.90;99.90
29577;DHT22;16509;53.862;10.672;2022-08-19T10:38:53;19.90;99.90
29577;DHT22;16509;53.862;10.672;2022-08-19T10:41:23;19.90;99.90
29577;DHT22;16509;53.862;10.672;2022-08-19T10:43:55;19.90;99.90
29577;DHT22;16509;53.862;10.672;2022-08-19T10:46:23;19.90;99.90
29577;DHT22;16509;53.862;10.672;2022-08-19T10:48:49;19.80;99.90
29577;DHT22;16509;53.862;10.672;2022-08-19T10:51:15;19.80;99.90
29577;DHT22;16509;53.862;10.672;2022-08-19T10:54:01;19.70;99.90
29577;DHT22;16509;53.862;10.672;2022-08-19T10:56:27;19.60;99.90
29577;DHT22;16509;53.862;10.672;2022-08-19T10:59:12;19.60;99.90
29577;DHT22;16509;53.862;10.672;2022-08-19T11:01:41;19.60;99.90
29577;DHT22;16509;53.862;10.672;2022-08-19T11:04:07;19.60;99.90
29577;DHT22;16509;53.862;10.672;2022-08-19T11:06:41;19.60;99.90
29577;DHT22;16509;53.862;10.672;2022-08-19T11:09:08;19.60;99.90
29577;DHT22;16509;53.862;10.672;2022-08-19T11:11:35;19.60;99.90
29577;DHT22;16509;53.862;10.672;2022-08-19T11:14:07;19.60;99.90
29577;DHT22;16509;53.862;10.672;2022-08-19T11:16:33;19.60;99.90
29577;DHT22;16509;53.862;10.672;2022-08-19T11:18:59;19.70;99.90
29577;DHT22;16509;53.862;10.672;2022-08-19T11:21:33;19.70;99.90
29577;DHT22;16509;53.862;10.672;2022-08-19T11:24:12;19.70;99.90
29577;DHT22;16509;53.862;10.672;2022-08-19T11:26:39;19.70;99.90
29577;DHT22;16509;53.862;10.672;2022-08-19T11:29:06;19.80;99.90
29577;DHT22;16509;53.862;10.672;2022-08-19T11:31:34;19.80;99.90
29577;DHT22;16509;53.862;10.672;2022-08-19T11:34:06;19.70;99.90
29577;DHT22;16509;53.862;10.672;2022-08-19T11:36:33;19.80;99.90
29577;DHT22;16509;53.862;10.672;2022-08-19T11:38:59;19.80;99.90
29577;DHT22;16509;53.862;10.672;2022-08-19T11:41:25;19.80;99.90
29577;DHT22;16509;53.862;10.672;2022-08-19T11:43:51;19.80;99.90
29577;DHT22;16509;53.862;10.672;2022-08-19T11:46:20;19.80;99.90
29577;DHT22;16509;53.862;10.672;2022-08-19T11:48:46;19.80;99.90
29577;DHT22;16509;53.862;10.672;2022-08-19T11:51:14;19.90;99.90
29577;DHT22;16509;53.862;10.672;2022-08-19T11:53:41;21.60;99.90
29577;DHT22;16509;53.862;10.672;2022-08-19T11:56:08;19.90;99.90
29577;DHT22;16509;53.862;10.672;2022-08-19T11:58:34;19.80;99.90
29577;DHT22;16509;53.862;10.672;2022-08-19T12:01:00;19.90;99.90
29577;DHT22;16509;53.862;10.672;2022-08-19T12:03:26;19.90;99.90
29577;DHT22;16509;53.862;10.672;2022-08-19T12:05:53;19.90;99.90
29577;DHT22;16509;53.862;10.672;2022-08-19T12:08:23;19.90;99.90
29577;DHT22;16509;53.862;10.672;2022-08-19T12:10:48;20.00;99.90
29577;DHT22;16509;53.862;10.672;2022-08-19T12:13:14;20.00;99.90
29577;DHT22;16509;53.862;10.672;2022-08-19T12:15:47;20.00;99.90
29577;DHT22;16509;53.862;10.672;2022-08-19T12:18:13;21.70;99.90
29577;DHT22;16509;53.862;10.672;2022-08-19T12:20:41;20.10;99.90
29577;DHT22;16509;53.862;10.672;2022-08-19T12:23:08;20.10;99.90
29577;DHT22;16509;53.862;10.672;2022-08-19T12:25:42;20.10;99.90
29577;DHT22;16509;53.862;10.672;2022-08-19T12:28:08;20.20;99.90
29577;DHT22;16509;53.862;10.672;2022-08-19T12:30:37;20.30;99.90
29577;DHT22;16509;53.862;10.672;2022-08-19T12:33:03;20.30;99.90
29577;DHT22;16509;53.862;10.672;2022-08-19T12:35:28;20.30;99.90
29577;DHT22;16509;53.862;10.672;2022-08-19T12:37:55;20.30;99.90
29577;DHT22;16509;53.862;10.672;2022-08-19T12:40:21;20.40;99.90
29577;DHT22;16509;53.862;10.672;2022-08-19T12:42:47;21.60;99.90
29577;DHT22;16509;53.862;10.672;2022-08-19T12:45:15;20.40;99.90
29577;DHT22;16509;53.862;10.672;2022-08-19T12:47:41;20.40;99.90
29577;DHT22;16509;53.862;10.672;2022-08-19T12:50:07;20.40;99.90
29577;DHT22;16509;53.862;10.672;2022-08-19T12:52:35;20.40;99.90
29577;DHT22;16509;53.862;10.672;2022-08-19T12:55:05;20.50;99.90
29577;DHT22;16509;53.862;10.672;2022-08-19T12:57:31;20.60;99.90
29577;DHT22;16509;53.862;10.672;2022-08-19T13:00:05;20.50;99.90
29577;DHT22;16509;53.862;10.672;2022-08-19T13:02:35;20.60;99.90
29577;DHT22;16509;53.862;10.672;2022-08-19T13:05:02;20.60;99.90
29577;DHT22;16509;53.862;10.672;2022-08-19T13:07:27;20.60;99.90
29577;DHT22;16509;53.862;10.672;2022-08-19T13:09:53;20.60;99.90
29577;DHT22;16509;53.862;10.672;2022-08-19T13:12:19;20.60;99.90
29577;DHT22;16509;53.862;10.672;2022-08-19T13:14:46;20.60;99.90
29577;DHT22;16509;53.862;10.672;2022-08-19T13:17:16;20.70;99.90
29577;DHT22;16509;53.862;10.672;2022-08-19T13:19:42;20.60;99.90
29577;DHT22;16509;53.862;10.672;2022-08-19T13:22:07;20.70;99.90
29577;DHT22;16509;53.862;10.672;2022-08-19T13:24:33;20.60;99.90
29577;DHT22;16509;53.862;10.672;2022-08-19T13:27:00;20.60;99.90
29577;DHT22;16509;53.862;10.672;2022-08-19T13:29:25;20.60;99.90
29577;DHT22;16509;53.862;10.672;2022-08-19T13:32:09;20.60;99.90
29577;DHT22;16509;53.862;10.672;2022-08-19T13:34:54;20.60;99.90
29577;DHT22;16509;53.862;10.672;2022-08-19T13:37:19;20.80;99.90
29577;DHT22;16509;53.862;10.672;2022-08-19T13:40:05;20.80;99.90
29577;DHT22;16509;53.862;10.672;2022-08-19T13:42:46;21.00;99.90
29577;DHT22;16509;53.862;10.672;2022-08-19T13:45:13;21.10;99.90
29577;DHT22;16509;53.862;10.672;2022-08-19T13:47:40;21.10;99.90
29577;DHT22;16509;53.862;10.672;2022-08-19T13:50:17;21.10;99.90
29577;DHT22;16509;53.862;10.672;2022-08-19T13:52:43;21.10;99.90
29577;DHT22;16509;53.862;10.672;2022-08-19T13:55:11;21.20;99.90
29577;DHT22;16509;53.862;10.672;2022-08-19T13:57:36;21.30;99.90
29577;DHT22;16509;53.862;10.672;2022-08-19T14:00:15;21.40;99.90
29577;DHT22;16509;53.862;10.672;2022-08-19T14:02:44;21.30;99.90
29577;DHT22;16509;53.862;10.672;2022-08-19T14:05:11;21.40;99.90
29577;DHT22;16509;53.862;10.672;2022-08-19T14:07:37;21.30;99.90
29577;DHT22;16509;53.862;10.672;2022-08-19T14:10:05;21.40;99.90
29577;DHT22;16509;53.862;10.672;2022-08-19T14:12:31;21.40;99.90
29577;DHT22;16509;53.862;10.672;2022-08-19T14:14:58;21.40;99.90
29577;DHT22;16509;53.862;10.672;2022-08-19T14:17:24;21.40;99.90
29577;DHT22;16509;53.862;10.672;2022-08-19T14:19:56;21.50;99.90
29577;DHT22;16509;53.862;10.672;2022-08-19T14:22:22;21.50;99.90
29577;DHT22;16509;53.862;10.672;2022-08-19T14:24:48;21.40;99.90
29577;DHT22;16509;53.862;10.672;2022-08-19T14:27:15;21.50;99.90
29577;DHT22;16509;53.862;10.672;2022-08-19T14:29:41;21.50;99.90
29577;DHT22;16509;53.862;10.672;2022-08-19T14:32:07;22.00;99.90
29577;DHT22;16509;53.862;10.672;2022-08-19T14:34:33;21.40;99.90
29577;DHT22;16509;53.862;10.672;2022-08-19T14:37:00;21.40;99.90
29577;DHT22;16509;53.862;10.672;2022-08-19T14:39:26;21.20;99.90
29577;DHT22;16509;53.862;10.672;2022-08-19T14:41:53;21.30;99.90
29577;DHT22;16509;53.862;10.672;2022-08-19T14:44:18;21.30;99.90
29577;DHT22;16509;53.862;10.672;2022-08-19T14:46:44;21.30;99.90
29577;DHT22;16509;53.862;10.672;2022-08-19T14:49:10;21.30;99.90
29577;DHT22;16509;53.862;10.672;2022-08-19T14:51:36;21.30;99.90
29577;DHT22;16509;53.862;10.672;2022-08-19T14:54:01;21.50;99.90
29577;DHT22;16509;53.862;10.672;2022-08-19T14:56:28;21.30;99.90
29577;DHT22;16509;53.862;10.672;2022-08-19T14:58:54;21.30;99.90
29577;DHT22;16509;53.862;10.672;2022-08-19T15:01:21;21.30;99.90
29577;DHT22;16509;53.862;10.672;2022-08-19T15:03:48;21.40;99.90
29577;DHT22;16509;53.862;10.672;2022-08-19T15:06:14;21.30;99.90
29577;DHT22;16509;53.862;10.672;2022-08-19T15:08:41;21.40;99.90
29577;DHT22;16509;53.862;10.672;2022-08-19T15:11:10;21.40;99.90
29577;DHT22;16509;53.862;10.672;2022-08-19T15:13:36;21.40;99.90
29577;DHT22;16509;53.862;10.672;2022-08-19T15:16:01;21.40;99.90
29577;DHT22;16509;53.862;10.672;2022-08-19T15:18:27;21.40;99.90
29577;DHT22;16509;53.862;10.672;2022-08-19T15:20:53;21.30;99.90
29577;DHT22;16509;53.862;10.672;2022-08-19T15:23:20;21.30;99.90
29577;DHT22;16509;53.862;10.672;2022-08-19T15:25:46;21.30;99.90